Crestline, Kansas
Current Conditions -  °F | °C
As of 10:04 PM on Sunday 21 Dec 2014 (Local Time) from KJLN Reporting Station
Overcast Overcast  
Wind Chill: 39°   Ceiling: 4600
Heat Index: 45°   Visibility: 10mi
Dew Point: 38°   Wind: 13mph
Humidity: 76%   Direction: 170°S
Pressure: 29.8"   Gusts: NA
Location:  37.17°N, 94.7°W
Report Text: KJLN 220404Z AUTO 17011KT 10SM FEW022 BKN046 OVC055 07/03 A2980 RMK AO2 T00720033 $
Loading
Personal Weather Stations






























Interactive Weather Map New forecast layout! Learn more

10-Day Weather Forecast

Advertisements
Track Severe Weather on mobile